createdAt,value
2022-08-14T00:00:37.331Z,11.02
2022-08-14T00:02:58.873Z,10.80
2022-08-14T00:05:22.201Z,10.63
2022-08-14T00:07:44.543Z,10.13
2022-08-14T00:10:49.962Z,12.52
2022-08-14T00:12:56.815Z,10.30
2022-08-14T00:15:22.926Z,12.65
2022-08-14T00:17:48.365Z,11.25
2022-08-14T00:20:15.599Z,10.10
2022-08-14T00:22:57.490Z,10.93
2022-08-14T00:25:19.920Z,11.60
2022-08-14T00:27:42.450Z,11.10
2022-08-14T00:30:07.932Z,11.43
2022-08-14T00:32:50.249Z,11.55
2022-08-14T00:35:13.827Z,11.55
2022-08-14T00:37:41.966Z,11.25
2022-08-14T00:40:18.829Z,12.00
2022-08-14T00:42:55.627Z,11.77
2022-08-14T00:45:18.638Z,12.15
2022-08-14T00:47:46.836Z,11.85
2022-08-14T00:50:17.533Z,11.02
2022-08-14T00:52:40.211Z,12.23
2022-08-14T00:55:03.081Z,11.30
2022-08-14T00:57:27.972Z,11.50
2022-08-14T00:59:50.800Z,11.25
2022-08-14T01:02:15.817Z,12.75
2022-08-14T01:04:53.835Z,12.27
2022-08-14T01:07:24.957Z,11.77
2022-08-14T01:09:50.791Z,11.88
2022-08-14T01:12:13.187Z,11.68
2022-08-14T01:14:55.247Z,12.77
2022-08-14T01:17:19.791Z,11.07
2022-08-14T01:20:02.374Z,12.18
2022-08-14T01:22:27.021Z,11.38
2022-08-14T01:24:51.567Z,11.77
2022-08-14T01:27:22.375Z,13.07
2022-08-14T01:30:03.581Z,13.27
2022-08-14T01:32:26.231Z,12.90
2022-08-14T01:35:19.420Z,13.05
2022-08-14T01:37:38.195Z,14.90
2022-08-14T01:40:06.487Z,13.20
2022-08-14T01:42:36.054Z,13.02
2022-08-14T01:44:58.595Z,13.00
2022-08-14T01:47:22.224Z,14.80
2022-08-14T01:49:46.542Z,13.07
2022-08-14T01:52:34.527Z,12.82
2022-08-14T01:55:06.788Z,13.52
2022-08-14T01:57:49.584Z,12.13
2022-08-14T02:00:16.696Z,11.73
2022-08-14T02:02:39.769Z,12.40
2022-08-14T02:05:02.759Z,12.75
2022-08-14T02:07:44.941Z,12.60
2022-08-14T02:10:07.939Z,12.82
2022-08-14T02:12:34.904Z,12.40
2022-08-14T02:15:00.171Z,13.55
2022-08-14T02:17:23.653Z,12.85
2022-08-14T02:19:45.085Z,13.73
2022-08-14T02:22:08.856Z,13.15
2022-08-14T02:24:39.408Z,13.60
2022-08-14T02:28:26.018Z,13.32
2022-08-14T02:29:59.439Z,12.77
2022-08-14T02:32:36.333Z,14.25
2022-08-14T02:35:00.719Z,12.88
2022-08-14T02:37:22.316Z,12.90
2022-08-14T02:39:45.644Z,13.02
2022-08-14T02:42:12.987Z,13.70
2022-08-14T02:44:39.853Z,13.20
2022-08-14T02:47:02.957Z,13.63
2022-08-14T02:49:33.978Z,12.98
2022-08-14T02:51:57.263Z,14.13
2022-08-14T02:54:19.858Z,13.75
2022-08-14T02:57:15.809Z,15.15
2022-08-14T02:59:25.600Z,13.32
2022-08-14T03:01:54.798Z,14.55
2022-08-14T03:04:17.750Z,14.30
2022-08-14T03:06:57.974Z,14.40
2022-08-14T03:09:42.389Z,14.38
2022-08-14T03:12:09.027Z,14.60
2022-08-14T03:14:30.776Z,16.20
2022-08-14T03:16:53.629Z,16.42
2022-08-14T03:19:15.123Z,16.70
2022-08-14T03:21:41.182Z,17.60
2022-08-14T03:24:03.820Z,15.30
2022-08-14T03:26:29.695Z,14.10
2022-08-14T03:28:52.638Z,15.07
2022-08-14T03:31:15.122Z,15.30
2022-08-14T03:33:40.258Z,15.73
2022-08-14T03:37:28.551Z,13.83
2022-08-14T03:39:14.228Z,14.30
2022-08-14T03:41:28.393Z,13.73
2022-08-14T03:44:01.589Z,13.47
2022-08-14T03:46:54.472Z,13.87
2022-08-14T03:49:24.167Z,15.27
2022-08-14T03:51:50.496Z,15.40
2022-08-14T03:54:20.431Z,15.67
2022-08-14T03:56:45.135Z,14.07
2022-08-14T03:59:18.043Z,13.17
2022-08-14T04:01:45.811Z,15.10
2022-08-14T04:04:19.713Z,15.33
2022-08-14T04:06:47.744Z,16.23
2022-08-14T04:09:10.596Z,16.40
2022-08-14T04:11:32.067Z,15.20
2022-08-14T04:13:54.366Z,15.97
2022-08-14T04:16:20.571Z,14.97
2022-08-14T04:18:44.803Z,15.20
2022-08-14T04:21:07.389Z,16.80
2022-08-14T04:23:33.472Z,17.13
2022-08-14T04:25:55.218Z,18.03
2022-08-14T04:29:05.258Z,15.37
2022-08-14T04:30:59.523Z,16.17
2022-08-14T04:33:24.513Z,16.27
2022-08-14T04:35:56.511Z,16.43
2022-08-14T04:38:39.966Z,14.77
2022-08-14T04:41:20.471Z,15.27
2022-08-14T04:43:43.338Z,17.93
2022-08-14T04:46:06.889Z,15.10
2022-08-14T04:48:38.855Z,15.63
2022-08-14T04:51:06.935Z,15.75
2022-08-14T04:53:35.394Z,15.77
2022-08-14T04:55:57.720Z,15.70
2022-08-14T04:58:21.536Z,16.00
2022-08-14T05:00:56.235Z,15.85
2022-08-14T05:03:21.262Z,16.77
2022-08-14T05:05:43.980Z,16.37
2022-08-14T05:08:31.779Z,17.17
2022-08-14T05:10:56.750Z,14.85
2022-08-14T05:13:20.237Z,14.87
2022-08-14T05:15:47.938Z,15.57
2022-08-14T05:18:17.222Z,16.70
2022-08-14T05:21:58.099Z,15.70
2022-08-14T05:23:30.192Z,16.30
2022-08-14T05:25:56.085Z,15.35
2022-08-14T05:28:21.070Z,17.45
2022-08-14T05:30:43.734Z,16.00
2022-08-14T05:33:06.373Z,17.17
2022-08-14T05:35:28.961Z,18.25
2022-08-14T05:37:50.392Z,17.98
2022-08-14T05:40:12.140Z,17.17
2022-08-14T05:42:34.568Z,17.25
2022-08-14T05:44:56.264Z,18.38
2022-08-14T05:47:17.761Z,19.70
2022-08-14T05:49:40.835Z,19.92
2022-08-14T05:52:02.862Z,18.02
2022-08-14T05:54:26.586Z,20.45
2022-08-14T05:56:48.729Z,20.05
2022-08-14T05:59:13.313Z,20.10
2022-08-14T06:01:38.502Z,19.60
2022-08-14T06:04:00.335Z,18.63
2022-08-14T06:06:21.823Z,18.10
2022-08-14T06:08:43.353Z,18.33
2022-08-14T06:11:07.760Z,18.30
2022-08-14T06:13:31.472Z,17.15
2022-08-14T06:15:53.389Z,18.08
2022-08-14T06:18:17.513Z,19.60
2022-08-14T06:20:40.005Z,20.20
2022-08-14T06:23:02.541Z,19.63
2022-08-14T06:25:25.017Z,19.05
2022-08-14T06:27:48.833Z,17.60
2022-08-14T06:30:14.971Z,17.85
2022-08-14T06:32:39.319Z,19.20
2022-08-14T06:35:13.239Z,18.00
2022-08-14T06:37:51.904Z,18.42
2022-08-14T06:40:26.265Z,19.83
2022-08-14T06:42:49.945Z,17.67
2022-08-14T06:45:12.349Z,18.63
2022-08-14T06:47:38.679Z,19.02
2022-08-14T06:50:07.625Z,17.80
2022-08-14T06:52:30.082Z,17.23
2022-08-14T06:54:52.012Z,18.27
2022-08-14T06:57:13.942Z,17.10
2022-08-14T06:59:35.637Z,16.98
2022-08-14T07:02:17.856Z,17.58
2022-08-14T07:04:59.123Z,16.90
2022-08-14T07:07:20.595Z,16.08
2022-08-14T07:09:50.740Z,16.23
2022-08-14T07:12:54.742Z,19.38
2022-08-14T07:15:00.993Z,14.77
2022-08-14T07:17:22.777Z,14.80
2022-08-14T07:19:44.483Z,15.40
2022-08-14T07:22:17.467Z,15.13
2022-08-14T07:24:42.027Z,14.23
2022-08-14T07:27:03.609Z,11.85
2022-08-14T07:29:26.503Z,12.00
2022-08-14T07:31:50.334Z,11.82
2022-08-14T07:34:36.646Z,11.27
2022-08-14T07:37:00.877Z,10.35
2022-08-14T07:39:27.468Z,9.98
2022-08-14T07:41:49.644Z,9.23
2022-08-14T07:44:32.196Z,10.63
2022-08-14T07:46:52.953Z,8.90
2022-08-14T07:49:17.824Z,8.20
2022-08-14T07:51:40.442Z,9.00
2022-08-14T07:54:02.013Z,8.95
2022-08-14T07:56:46.780Z,8.40
2022-08-14T07:59:09.065Z,8.60
2022-08-14T08:01:31.734Z,8.27
2022-08-14T08:03:59.421Z,8.00
2022-08-14T08:06:22.373Z,7.50
2022-08-14T08:09:01.341Z,6.60
2022-08-14T08:11:27.506Z,6.80
2022-08-14T08:13:59.522Z,6.60
2022-08-14T08:16:24.407Z,6.28
2022-08-14T08:18:45.896Z,7.13
2022-08-14T08:21:08.432Z,6.70
2022-08-14T08:23:39.992Z,6.40
2022-08-14T08:26:01.836Z,6.63
2022-08-14T08:28:26.639Z,7.38
2022-08-14T08:30:52.827Z,6.93
2022-08-14T08:33:17.763Z,6.65
2022-08-14T08:35:47.063Z,6.35
2022-08-14T08:39:17.791Z,6.13
2022-08-14T08:41:00.103Z,6.30
2022-08-14T08:43:30.169Z,6.95
2022-08-14T08:46:04.027Z,5.30
2022-08-14T08:48:37.097Z,6.03
2022-08-14T08:51:03.640Z,6.15
2022-08-14T08:53:34.233Z,5.90
2022-08-14T08:55:56.845Z,6.57
2022-08-14T08:58:24.789Z,5.32
2022-08-14T09:00:50.083Z,5.90
2022-08-14T09:03:20.474Z,5.95
2022-08-14T09:05:54.516Z,5.80
2022-08-14T09:08:31.917Z,6.07
2022-08-14T09:10:56.495Z,6.63
2022-08-14T09:13:19.396Z,6.22
2022-08-14T09:15:43.645Z,6.40
2022-08-14T09:18:06.086Z,6.20
2022-08-14T09:20:30.659Z,6.43
2022-08-14T09:22:53.732Z,6.72
2022-08-14T09:25:19.703Z,7.05
2022-08-14T09:27:41.522Z,6.90
2022-08-14T09:30:12.688Z,6.55
2022-08-14T09:33:22.484Z,6.45
2022-08-14T09:36:05.972Z,6.72
2022-08-14T09:38:58.854Z,6.65
2022-08-14T09:42:21.075Z,6.43
2022-08-14T09:44:54.437Z,6.90
2022-08-14T09:47:17.264Z,6.70
2022-08-14T09:49:39.969Z,6.13
2022-08-14T09:52:33.455Z,6.78
2022-08-14T09:54:52.395Z,8.25
2022-08-14T09:57:28.937Z,5.97
2022-08-14T09:59:51.065Z,6.22
2022-08-14T10:02:21.802Z,6.60
2022-08-14T10:04:46.349Z,6.07
2022-08-14T10:07:12.404Z,6.90
2022-08-14T10:09:35.152Z,6.35
2022-08-14T10:11:59.747Z,5.75
2022-08-14T10:14:35.172Z,6.68
2022-08-14T10:16:58.540Z,6.55
2022-08-14T10:19:24.149Z,5.95
2022-08-14T10:23:15.552Z,5.78
2022-08-14T10:24:50.998Z,5.50
2022-08-14T10:27:25.033Z,6.30
2022-08-14T10:29:50.936Z,7.38
2022-08-14T10:32:17.852Z,4.93
2022-08-14T10:34:41.052Z,5.30
2022-08-14T10:37:14.258Z,6.10
2022-08-14T10:39:38.572Z,5.70
2022-08-14T10:42:18.341Z,8.07
2022-08-14T10:44:52.600Z,6.70
2022-08-14T10:47:40.819Z,5.70
2022-08-14T10:49:59.946Z,5.28
2022-08-14T10:52:25.544Z,5.68
2022-08-14T10:54:48.345Z,5.28
2022-08-14T10:57:21.821Z,5.40
2022-08-14T10:59:56.006Z,5.63
2022-08-14T11:02:54.350Z,5.40
2022-08-14T11:05:18.696Z,5.45
2022-08-14T11:07:55.312Z,4.90
2022-08-14T11:10:17.797Z,5.18
2022-08-14T11:12:49.754Z,6.57
2022-08-14T11:15:11.254Z,5.38
2022-08-14T11:17:36.188Z,5.30
2022-08-14T11:20:00.138Z,5.70
2022-08-14T11:22:56.232Z,5.65
2022-08-14T11:25:06.743Z,5.20
2022-08-14T11:27:33.380Z,5.72
2022-08-14T11:30:49.217Z,5.38
2022-08-14T11:32:48.734Z,5.72
2022-08-14T11:35:18.210Z,5.15
2022-08-14T11:37:49.643Z,6.50
2022-08-14T11:40:20.015Z,6.75
2022-08-14T11:42:59.457Z,5.30
2022-08-14T11:45:26.704Z,5.70
2022-08-14T11:48:12.779Z,6.18
2022-08-14T11:50:38.361Z,4.82
2022-08-14T11:53:04.304Z,5.68
2022-08-14T11:55:27.148Z,5.43
2022-08-14T11:58:03.417Z,6.55
2022-08-14T12:00:32.137Z,5.65
2022-08-14T12:03:04.043Z,5.53
2022-08-14T12:05:30.978Z,5.22
2022-08-14T12:07:54.920Z,6.00
2022-08-14T12:10:26.233Z,5.50
2022-08-14T12:12:50.283Z,5.57
2022-08-14T12:15:12.617Z,8.23
2022-08-14T12:17:47.568Z,5.82
2022-08-14T12:20:11.641Z,6.03
2022-08-14T12:22:40.115Z,5.95
2022-08-14T12:25:10.965Z,5.50
2022-08-14T12:27:51.920Z,6.95
2022-08-14T12:30:39.449Z,5.90
2022-08-14T12:33:04.234Z,5.25
2022-08-14T12:35:43.301Z,5.78
2022-08-14T12:38:04.794Z,5.57
2022-08-14T12:40:28.848Z,5.65
2022-08-14T12:42:56.627Z,6.53
2022-08-14T12:45:20.440Z,6.10
2022-08-14T12:47:43.730Z,6.82
2022-08-14T12:50:13.196Z,6.60
2022-08-14T12:52:54.165Z,6.35
2022-08-14T12:55:32.528Z,5.85
2022-08-14T12:58:35.432Z,6.05
2022-08-14T13:01:16.343Z,6.43
2022-08-14T13:03:33.869Z,5.85
2022-08-14T13:05:56.439Z,5.88
2022-08-14T13:08:34.086Z,5.90
2022-08-14T13:10:58.094Z,6.10
2022-08-14T13:13:28.892Z,5.68
2022-08-14T13:15:56.128Z,6.82
2022-08-14T13:18:22.709Z,6.53
2022-08-14T13:20:49.790Z,5.70
2022-08-14T13:23:30.520Z,5.65
2022-08-14T13:25:55.925Z,6.18
2022-08-14T13:28:32.611Z,5.95
2022-08-14T13:30:57.029Z,6.03
2022-08-14T13:33:21.644Z,6.22
2022-08-14T13:35:47.540Z,6.25
2022-08-14T13:38:13.388Z,6.50
2022-08-14T13:40:35.398Z,6.53
2022-08-14T13:43:02.617Z,5.60
2022-08-14T13:45:33.659Z,5.93
2022-08-14T13:48:07.940Z,7.10
2022-08-14T13:50:45.582Z,5.88
2022-08-14T13:53:09.797Z,5.47
2022-08-14T13:55:32.354Z,5.68
2022-08-14T13:58:03.318Z,6.68
2022-08-14T14:00:32.539Z,6.15
2022-08-14T14:02:58.623Z,6.53
2022-08-14T14:05:21.075Z,6.38
2022-08-14T14:07:47.384Z,8.13
2022-08-14T14:10:16.950Z,7.95
2022-08-14T14:12:41.451Z,6.65
2022-08-14T14:15:09.595Z,6.95
2022-08-14T14:17:31.580Z,6.90
2022-08-14T14:19:54.173Z,6.60
2022-08-14T14:22:45.406Z,6.50
2022-08-14T14:24:57.577Z,6.18
2022-08-14T14:30:03.333Z,6.40
2022-08-14T14:32:52.666Z,6.40
2022-08-14T14:35:30.074Z,6.47
2022-08-14T14:37:56.291Z,5.70
2022-08-14T14:40:53.838Z,6.93
2022-08-14T14:43:03.879Z,6.60
2022-08-14T14:45:27.733Z,6.50
2022-08-14T14:47:59.320Z,6.72
2022-08-14T14:50:24.725Z,6.45
2022-08-14T14:52:49.590Z,6.63
2022-08-14T14:55:19.074Z,6.97
2022-08-14T14:57:44.578Z,6.60
2022-08-14T15:00:19.463Z,6.70
2022-08-14T15:02:44.233Z,8.13
2022-08-14T15:05:08.148Z,6.05
2022-08-14T15:07:30.018Z,6.10
2022-08-14T15:09:53.976Z,6.00
2022-08-14T15:12:27.878Z,6.78
2022-08-14T15:15:08.049Z,6.43
2022-08-14T15:17:40.845Z,6.22
2022-08-14T15:20:30.632Z,6.65
2022-08-14T15:22:52.845Z,6.85
2022-08-14T15:25:18.580Z,6.22
2022-08-14T15:27:44.187Z,6.50
2022-08-14T15:30:07.605Z,6.72
2022-08-14T15:32:29.509Z,6.65
2022-08-14T15:34:53.026Z,6.78
2022-08-14T15:37:16.596Z,6.35
2022-08-14T15:39:38.708Z,7.20
2022-08-14T15:42:09.321Z,6.55
2022-08-14T15:44:46.594Z,6.88
2022-08-14T15:47:28.429Z,6.45
2022-08-14T15:49:53.980Z,6.72
2022-08-14T15:52:32.527Z,7.18
2022-08-14T15:54:57.682Z,11.65
2022-08-14T15:57:21.167Z,8.68
2022-08-14T16:00:01.408Z,6.70
2022-08-14T16:02:27.574Z,6.40
2022-08-14T16:04:50.559Z,7.72
2022-08-14T16:07:13.325Z,7.72
2022-08-14T16:09:36.335Z,6.82
2022-08-14T16:11:57.843Z,6.43
2022-08-14T16:14:20.449Z,6.53
2022-08-14T16:16:49.915Z,6.50
2022-08-14T16:19:18.454Z,6.70
2022-08-14T16:22:01.192Z,5.93
2022-08-14T16:24:28.288Z,6.53
2022-08-14T16:26:51.748Z,7.50
2022-08-14T16:29:16.557Z,6.85
2022-08-14T16:31:43.025Z,7.30
2022-08-14T16:34:22.892Z,6.88
2022-08-14T16:36:51.012Z,6.28
2022-08-14T16:39:12.779Z,6.15
2022-08-14T16:41:36.189Z,8.68
2022-08-14T16:44:13.808Z,6.70
2022-08-14T16:46:45.622Z,6.30
2022-08-14T16:49:10.308Z,6.35
2022-08-14T16:51:36.307Z,6.60
2022-08-14T16:54:01.623Z,6.47
2022-08-14T16:56:25.619Z,7.88
2022-08-14T16:59:16.407Z,6.45
2022-08-14T17:01:40.540Z,6.40
2022-08-14T17:04:09.153Z,6.82
2022-08-14T17:06:42.975Z,6.75
2022-08-14T17:09:22.156Z,6.55
2022-08-14T17:11:54.564Z,6.53
2022-08-14T17:14:17.434Z,6.53
2022-08-14T17:16:41.560Z,6.40
2022-08-14T17:19:04.813Z,6.47
2022-08-14T17:21:31.316Z,6.13
2022-08-14T17:23:57.749Z,8.00
2022-08-14T17:26:43.522Z,6.10
2022-08-14T17:29:09.917Z,7.13
2022-08-14T17:31:57.753Z,6.78
2022-08-14T17:34:18.184Z,6.93
2022-08-14T17:36:42.205Z,6.60
2022-08-14T17:39:13.644Z,6.90
2022-08-14T17:41:43.863Z,7.13
2022-08-14T17:44:33.735Z,7.10
2022-08-14T17:47:08.201Z,6.60
2022-08-14T17:49:47.217Z,8.27
2022-08-14T17:52:34.752Z,6.88
2022-08-14T17:55:00.522Z,8.15
2022-08-14T17:57:25.956Z,7.78
2022-08-14T17:59:51.483Z,7.00
2022-08-14T18:02:16.623Z,6.68
2022-08-14T18:04:41.162Z,6.47
2022-08-14T18:07:16.852Z,7.30
2022-08-14T18:09:56.703Z,7.47
2022-08-14T18:12:31.826Z,7.30
2022-08-14T18:14:54.079Z,6.57
2022-08-14T18:17:16.361Z,9.73
2022-08-14T18:19:41.654Z,9.57
2022-08-14T18:22:32.915Z,9.00
2022-08-14T18:24:49.700Z,8.85
2022-08-14T18:27:14.873Z,8.18
2022-08-14T18:29:43.946Z,7.07
2022-08-14T18:32:31.364Z,8.20
2022-08-14T18:34:59.907Z,7.43
2022-08-14T18:37:21.628Z,10.13
2022-08-14T18:40:02.307Z,15.43
2022-08-14T18:42:30.484Z,14.43
2022-08-14T18:44:58.606Z,23.10
2022-08-14T18:47:25.608Z,11.82
2022-08-14T18:49:57.420Z,9.48
2022-08-14T18:52:41.688Z,9.18
2022-08-14T18:55:15.777Z,7.70
2022-08-14T18:57:58.572Z,7.13
2022-08-14T19:00:32.883Z,10.23
2022-08-14T19:02:55.804Z,6.90
2022-08-14T19:05:37.827Z,9.88
2022-08-14T19:08:22.059Z,7.63
2022-08-14T19:10:51.321Z,8.18
2022-08-14T19:13:20.418Z,8.98
2022-08-14T19:15:56.095Z,9.57
2022-08-14T19:18:26.415Z,8.80
2022-08-14T19:21:00.528Z,7.40
2022-08-14T19:23:43.186Z,7.50
2022-08-14T19:26:37.006Z,10.93
2022-08-14T19:29:20.079Z,8.32
2022-08-14T19:31:55.104Z,10.23
2022-08-14T19:34:52.589Z,9.05
2022-08-14T19:37:46.043Z,11.40
2022-08-14T19:40:15.083Z,9.48
2022-08-14T19:42:46.503Z,12.75
2022-08-14T19:45:14.590Z,8.70
2022-08-14T19:47:41.166Z,8.00
2022-08-14T19:50:08.373Z,8.32
2022-08-14T19:52:46.126Z,10.15
2022-08-14T19:55:19.878Z,8.23
2022-08-14T19:57:41.885Z,8.70
2022-08-14T20:00:27.951Z,8.25
2022-08-14T20:03:10.740Z,7.90
2022-08-14T20:05:39.944Z,7.93
2022-08-14T20:08:07.663Z,9.63
2022-08-14T20:11:04.708Z,7.82
2022-08-14T20:13:32.511Z,8.52
2022-08-14T20:15:54.523Z,8.27
2022-08-14T20:18:48.758Z,8.35
2022-08-14T20:21:07.474Z,7.95
2022-08-14T20:23:38.147Z,8.55
2022-08-14T20:26:00.575Z,7.35
2022-08-14T20:28:32.018Z,8.63
2022-08-14T20:31:15.685Z,8.50
2022-08-14T20:33:47.785Z,8.20
2022-08-14T20:36:16.211Z,7.88
2022-08-14T20:38:55.393Z,10.02
2022-08-14T20:41:20.079Z,10.52
2022-08-14T20:44:06.738Z,7.93
2022-08-14T20:46:39.010Z,8.93
2022-08-14T20:49:18.794Z,10.00
2022-08-14T20:51:58.719Z,8.48
2022-08-14T20:54:34.693Z,8.70
2022-08-14T20:57:18.830Z,9.57
2022-08-14T20:59:47.055Z,11.00
2022-08-14T21:02:30.393Z,9.18
2022-08-14T21:05:00.577Z,9.30
2022-08-14T21:07:36.061Z,9.52
2022-08-14T21:10:36.160Z,9.25
2022-08-14T21:13:26.552Z,10.65
2022-08-14T21:15:40.856Z,9.27
2022-08-14T21:18:02.407Z,9.43
2022-08-14T21:20:26.761Z,9.35
2022-08-14T21:22:50.647Z,9.07
2022-08-14T21:25:13.238Z,9.48
2022-08-14T21:27:37.421Z,9.27
2022-08-14T21:29:59.771Z,9.63
2022-08-14T21:32:47.063Z,9.25
2022-08-14T21:35:13.503Z,9.40
2022-08-14T21:37:47.443Z,9.15
2022-08-14T21:40:40.833Z,9.57
2022-08-14T21:42:52.323Z,12.75
2022-08-14T21:45:14.690Z,10.88
2022-08-14T21:47:36.428Z,8.32
2022-08-14T21:49:58.297Z,9.55
2022-08-14T21:52:52.077Z,9.00
2022-08-14T21:55:09.826Z,8.40
2022-08-14T21:58:45.916Z,9.50
2022-08-14T22:00:30.563Z,8.70
2022-08-14T22:02:57.607Z,8.93
2022-08-14T22:05:22.151Z,9.85
2022-08-14T22:07:44.550Z,9.00
2022-08-14T22:10:09.839Z,9.20
2022-08-14T22:12:58.793Z,9.13
2022-08-14T22:15:17.920Z,9.07
2022-08-14T22:17:40.392Z,9.00
2022-08-14T22:20:12.248Z,9.48
2022-08-14T22:22:40.324Z,8.95
2022-08-14T22:25:04.978Z,8.95
2022-08-14T22:27:26.666Z,9.73
2022-08-14T22:29:54.852Z,9.50
2022-08-14T22:32:19.795Z,8.68
2022-08-14T22:34:48.590Z,9.18
2022-08-14T22:37:10.404Z,9.32
2022-08-14T22:40:54.604Z,9.02
2022-08-14T22:42:21.095Z,8.50
2022-08-14T22:44:44.384Z,10.20
2022-08-14T22:47:07.355Z,9.80
2022-08-14T22:50:31.239Z,10.38
2022-08-14T22:52:31.648Z,9.00
2022-08-14T22:54:54.077Z,8.57
2022-08-14T22:57:15.711Z,8.85
2022-08-14T22:59:38.953Z,9.23
2022-08-14T23:02:04.106Z,11.68
2022-08-14T23:04:34.950Z,11.93
2022-08-14T23:07:07.445Z,9.30
2022-08-14T23:09:38.172Z,9.40
2022-08-14T23:12:02.006Z,9.52
2022-08-14T23:14:26.822Z,9.68
2022-08-14T23:16:57.285Z,10.13
2022-08-14T23:19:20.571Z,9.57
2022-08-14T23:21:46.189Z,9.50
2022-08-14T23:24:09.367Z,8.88
2022-08-14T23:26:48.811Z,9.82
2022-08-14T23:29:13.467Z,11.63
2022-08-14T23:31:39.378Z,9.65
2022-08-14T23:34:01.899Z,9.43
2022-08-14T23:36:36.958Z,9.38
2022-08-14T23:39:18.978Z,9.25
2022-08-14T23:41:46.576Z,9.75
2022-08-14T23:44:15.014Z,9.98
2022-08-14T23:46:36.476Z,10.07
2022-08-14T23:49:01.253Z,10.85
2022-08-14T23:51:23.403Z,9.38
2022-08-14T23:53:51.435Z,9.68
2022-08-14T23:56:20.341Z,10.40
2022-08-14T23:58:54.769Z,9.48
